sensor_id;sensor_type;location;lat;lon;timestamp;P1;durP1;ratioP1;P2;durP2;ratioP2
79346;SDS011;68815;48.810;44.482;2023-03-31T00:02:40;3.5;;;1.7;;
79346;SDS011;68815;48.810;44.482;2023-03-31T00:05:42;3.5;;;1.7;;
79346;SDS011;68815;48.810;44.482;2023-03-31T00:08:43;3.9;;;1.9;;
79346;SDS011;68815;48.810;44.482;2023-03-31T00:11:45;3.9;;;1.7;;
79346;SDS011;68815;48.810;44.482;2023-03-31T00:14:47;3.8;;;1.9;;
79346;SDS011;68815;48.810;44.482;2023-03-31T00:17:49;4;;;1.9;;
79346;SDS011;68815;48.810;44.482;2023-03-31T00:20:50;3.7;;;1.8;;
79346;SDS011;68815;48.810;44.482;2023-03-31T00:23:52;3.5;;;1.9;;
79346;SDS011;68815;48.810;44.482;2023-03-31T00:26:54;3.8;;;1.9;;
79346;SDS011;68815;48.810;44.482;2023-03-31T00:29:56;4;;;1.8;;
79346;SDS011;68815;48.810;44.482;2023-03-31T00:32:57;4.6;;;1.9;;
79346;SDS011;68815;48.810;44.482;2023-03-31T00:35:59;4;;;1.9;;
79346;SDS011;68815;48.810;44.482;2023-03-31T00:39:00;4.1;;;2;;
79346;SDS011;68815;48.810;44.482;2023-03-31T00:42:04;4.4;;;2.2;;
79346;SDS011;68815;48.810;44.482;2023-03-31T00:45:21;4;;;2.2;;
79346;SDS011;68815;48.810;44.482;2023-03-31T00:48:24;4.6;;;2.1;;
79346;SDS011;68815;48.810;44.482;2023-03-31T00:51:27;6.5;;;2.5;;
79346;SDS011;68815;48.810;44.482;2023-03-31T00:54:32;3.8;;;2.1;;
79346;SDS011;68815;48.810;44.482;2023-03-31T00:57:35;5;;;2.2;;
79346;SDS011;68815;48.810;44.482;2023-03-31T01:00:39;4.3;;;2.3;;
79346;SDS011;68815;48.810;44.482;2023-03-31T01:03:41;6.7;;;2.4;;
79346;SDS011;68815;48.810;44.482;2023-03-31T01:06:46;5.4;;;2.4;;
79346;SDS011;68815;48.810;44.482;2023-03-31T01:09:55;4.4;;;2.3;;
79346;SDS011;68815;48.810;44.482;2023-03-31T01:13:00;4;;;2;;
79346;SDS011;68815;48.810;44.482;2023-03-31T01:16:01;4.4;;;2.2;;
79346;SDS011;68815;48.810;44.482;2023-03-31T01:19:03;4.2;;;1.9;;
79346;SDS011;68815;48.810;44.482;2023-03-31T01:25:41;4.4;;;2.1;;
79346;SDS011;68815;48.810;44.482;2023-03-31T01:28:58;5.6;;;2.3;;
79346;SDS011;68815;48.810;44.482;2023-03-31T01:39:03;3.9;;;2.1;;
79346;SDS011;68815;48.810;44.482;2023-03-31T01:42:12;5.3;;;2.1;;
79346;SDS011;68815;48.810;44.482;2023-03-31T01:45:19;5.9;;;2.3;;
79346;SDS011;68815;48.810;44.482;2023-03-31T01:48:30;4.6;;;1.9;;
79346;SDS011;68815;48.810;44.482;2023-03-31T01:51:38;4;;;2.1;;
79346;SDS011;68815;48.810;44.482;2023-03-31T01:54:47;4;;;2.1;;
79346;SDS011;68815;48.810;44.482;2023-03-31T01:57:55;5.3;;;2.3;;
79346;SDS011;68815;48.810;44.482;2023-03-31T02:01:04;3.8;;;2;;
79346;SDS011;68815;48.810;44.482;2023-03-31T02:04:12;3.5;;;1.8;;
79346;SDS011;68815;48.810;44.482;2023-03-31T02:07:19;5;;;2;;
79346;SDS011;68815;48.810;44.482;2023-03-31T02:10:25;3.9;;;2.1;;
79346;SDS011;68815;48.810;44.482;2023-03-31T02:13:31;4.2;;;2.1;;
79346;SDS011;68815;48.810;44.482;2023-03-31T02:16:36;4.7;;;2.1;;
79346;SDS011;68815;48.810;44.482;2023-03-31T02:19:40;4.5;;;2.2;;
79346;SDS011;68815;48.810;44.482;2023-03-31T02:22:46;3.8;;;2.2;;
79346;SDS011;68815;48.810;44.482;2023-03-31T02:25:50;4.2;;;2.2;;
79346;SDS011;68815;48.810;44.482;2023-03-31T02:28:55;5.3;;;2.3;;
79346;SDS011;68815;48.810;44.482;2023-03-31T02:31:59;5.7;;;2.2;;
79346;SDS011;68815;48.810;44.482;2023-03-31T02:35:04;5.1;;;2.3;;
79346;SDS011;68815;48.810;44.482;2023-03-31T02:38:08;5.5;;;2.4;;
79346;SDS011;68815;48.810;44.482;2023-03-31T02:41:09;5;;;2.4;;
79346;SDS011;68815;48.810;44.482;2023-03-31T02:44:11;5.4;;;2.4;;
79346;SDS011;68815;48.810;44.482;2023-03-31T02:47:13;4.5;;;2.3;;
79346;SDS011;68815;48.810;44.482;2023-03-31T02:50:16;4.5;;;2.3;;
79346;SDS011;68815;48.810;44.482;2023-03-31T02:53:18;4.9;;;2.5;;
79346;SDS011;68815;48.810;44.482;2023-03-31T02:56:30;4.4;;;2.4;;
79346;SDS011;68815;48.810;44.482;2023-03-31T02:59:43;5.1;;;2.5;;
79346;SDS011;68815;48.810;44.482;2023-03-31T03:02:54;4.4;;;2.4;;
79346;SDS011;68815;48.810;44.482;2023-03-31T03:06:04;5.6;;;2.3;;
79346;SDS011;68815;48.810;44.482;2023-03-31T03:09:24;4.5;;;2.5;;
79346;SDS011;68815;48.810;44.482;2023-03-31T03:12:32;4.9;;;2.7;;
79346;SDS011;68815;48.810;44.482;2023-03-31T03:15:42;6.3;;;3;;
79346;SDS011;68815;48.810;44.482;2023-03-31T03:18:53;6.5;;;2.5;;
79346;SDS011;68815;48.810;44.482;2023-03-31T03:21:56;4.6;;;2.7;;
79346;SDS011;68815;48.810;44.482;2023-03-31T03:24:58;6.6;;;2.7;;
79346;SDS011;68815;48.810;44.482;2023-03-31T03:27:59;5.2;;;2.5;;
79346;SDS011;68815;48.810;44.482;2023-03-31T03:31:01;5.8;;;2.7;;
79346;SDS011;68815;48.810;44.482;2023-03-31T03:34:02;5;;;2.7;;
79346;SDS011;68815;48.810;44.482;2023-03-31T03:37:04;5.9;;;2.7;;
79346;SDS011;68815;48.810;44.482;2023-03-31T03:40:06;5.3;;;2.7;;
79346;SDS011;68815;48.810;44.482;2023-03-31T03:43:07;5;;;2.5;;
79346;SDS011;68815;48.810;44.482;2023-03-31T03:46:09;6.5;;;2.8;;
79346;SDS011;68815;48.810;44.482;2023-03-31T03:49:10;5.1;;;2.4;;
79346;SDS011;68815;48.810;44.482;2023-03-31T03:52:12;4.6;;;2.6;;
79346;SDS011;68815;48.810;44.482;2023-03-31T03:55:13;4.8;;;2.5;;
79346;SDS011;68815;48.810;44.482;2023-03-31T03:58:15;5.2;;;2.4;;
79346;SDS011;68815;48.810;44.482;2023-03-31T04:01:17;5.3;;;2.6;;
79346;SDS011;68815;48.810;44.482;2023-03-31T04:04:18;7.4;;;3;;
79346;SDS011;68815;48.810;44.482;2023-03-31T04:07:22;6.4;;;3;;
79346;SDS011;68815;48.810;44.482;2023-03-31T04:10:28;4.8;;;2.5;;
79346;SDS011;68815;48.810;44.482;2023-03-31T04:13:30;3.8;;;2.3;;
79346;SDS011;68815;48.810;44.482;2023-03-31T04:16:31;3.9;;;2.1;;
79346;SDS011;68815;48.810;44.482;2023-03-31T04:19:32;4.6;;;2.2;;
79346;SDS011;68815;48.810;44.482;2023-03-31T04:22:34;5.6;;;2.3;;
79346;SDS011;68815;48.810;44.482;2023-03-31T04:25:35;4.4;;;2.1;;
79346;SDS011;68815;48.810;44.482;2023-03-31T04:32:09;6;;;2.2;;
79346;SDS011;68815;48.810;44.482;2023-03-31T04:35:10;7.1;;;2.3;;
79346;SDS011;68815;48.810;44.482;2023-03-31T04:38:11;4.4;;;2.1;;
79346;SDS011;68815;48.810;44.482;2023-03-31T04:41:13;5.3;;;2.4;;
79346;SDS011;68815;48.810;44.482;2023-03-31T04:44:14;5.9;;;2.4;;
79346;SDS011;68815;48.810;44.482;2023-03-31T04:47:16;5.4;;;2.4;;
79346;SDS011;68815;48.810;44.482;2023-03-31T04:50:17;6.5;;;2.5;;
79346;SDS011;68815;48.810;44.482;2023-03-31T04:53:19;4.5;;;2.4;;
79346;SDS011;68815;48.810;44.482;2023-03-31T04:56:20;6;;;2.4;;
79346;SDS011;68815;48.810;44.482;2023-03-31T04:59:22;4.6;;;2.3;;
79346;SDS011;68815;48.810;44.482;2023-03-31T05:02:23;6.2;;;2.4;;
79346;SDS011;68815;48.810;44.482;2023-03-31T05:05:25;5.5;;;2.6;;
79346;SDS011;68815;48.810;44.482;2023-03-31T05:08:26;5.7;;;2.8;;
79346;SDS011;68815;48.810;44.482;2023-03-31T05:11:28;4.8;;;2.4;;
79346;SDS011;68815;48.810;44.482;2023-03-31T05:14:29;5;;;2.5;;
79346;SDS011;68815;48.810;44.482;2023-03-31T05:17:31;4.6;;;2.5;;
79346;SDS011;68815;48.810;44.482;2023-03-31T05:20:33;7.3;;;2.5;;
79346;SDS011;68815;48.810;44.482;2023-03-31T05:23:35;5.7;;;2.7;;
79346;SDS011;68815;48.810;44.482;2023-03-31T05:26:36;5.2;;;2.5;;
79346;SDS011;68815;48.810;44.482;2023-03-31T05:29:37;5.4;;;2.8;;
79346;SDS011;68815;48.810;44.482;2023-03-31T05:32:40;5.6;;;2.8;;
79346;SDS011;68815;48.810;44.482;2023-03-31T05:35:43;6.7;;;3;;
79346;SDS011;68815;48.810;44.482;2023-03-31T05:38:44;5.8;;;3;;
79346;SDS011;68815;48.810;44.482;2023-03-31T05:41:46;6.1;;;3.2;;
79346;SDS011;68815;48.810;44.482;2023-03-31T05:44:47;5.4;;;2.9;;
79346;SDS011;68815;48.810;44.482;2023-03-31T05:47:48;4.9;;;2.8;;
79346;SDS011;68815;48.810;44.482;2023-03-31T05:50:50;4.9;;;2.8;;
79346;SDS011;68815;48.810;44.482;2023-03-31T05:53:52;4.8;;;2.6;;
79346;SDS011;68815;48.810;44.482;2023-03-31T05:56:54;5.1;;;2.8;;
79346;SDS011;68815;48.810;44.482;2023-03-31T05:59:55;5.3;;;3.2;;
79346;SDS011;68815;48.810;44.482;2023-03-31T06:02:57;6;;;2.9;;
79346;SDS011;68815;48.810;44.482;2023-03-31T06:09:30;5.9;;;3;;
79346;SDS011;68815;48.810;44.482;2023-03-31T06:16:02;4.9;;;2.8;;
79346;SDS011;68815;48.810;44.482;2023-03-31T06:22:30;7.3;;;3.2;;
79346;SDS011;68815;48.810;44.482;2023-03-31T06:25:31;6.2;;;3.2;;
79346;SDS011;68815;48.810;44.482;2023-03-31T06:28:33;6;;;3.1;;
79346;SDS011;68815;48.810;44.482;2023-03-31T06:31:34;5.5;;;3.3;;
79346;SDS011;68815;48.810;44.482;2023-03-31T06:34:36;8.8;;;3.4;;
79346;SDS011;68815;48.810;44.482;2023-03-31T06:37:37;7.2;;;3;;
79346;SDS011;68815;48.810;44.482;2023-03-31T06:40:39;9.6;;;3.6;;
79346;SDS011;68815;48.810;44.482;2023-03-31T06:43:42;7.3;;;3.1;;
79346;SDS011;68815;48.810;44.482;2023-03-31T06:46:43;6.5;;;3.1;;
79346;SDS011;68815;48.810;44.482;2023-03-31T06:49:45;7.2;;;3;;
79346;SDS011;68815;48.810;44.482;2023-03-31T06:56:17;5.5;;;2.9;;
79346;SDS011;68815;48.810;44.482;2023-03-31T06:59:19;5.3;;;2.6;;
79346;SDS011;68815;48.810;44.482;2023-03-31T07:02:20;6.1;;;3.3;;
79346;SDS011;68815;48.810;44.482;2023-03-31T07:05:22;6.9;;;2.9;;
79346;SDS011;68815;48.810;44.482;2023-03-31T07:08:23;5.9;;;2.6;;
79346;SDS011;68815;48.810;44.482;2023-03-31T07:11:25;5.8;;;2.9;;
79346;SDS011;68815;48.810;44.482;2023-03-31T07:14:26;5.1;;;2.5;;
79346;SDS011;68815;48.810;44.482;2023-03-31T07:17:28;4;;;2.3;;
79346;SDS011;68815;48.810;44.482;2023-03-31T07:20:29;4.9;;;2.4;;
79346;SDS011;68815;48.810;44.482;2023-03-31T07:23:30;5.1;;;2.2;;
79346;SDS011;68815;48.810;44.482;2023-03-31T07:26:32;5.2;;;2.6;;
79346;SDS011;68815;48.810;44.482;2023-03-31T07:29:33;5.3;;;2.5;;
79346;SDS011;68815;48.810;44.482;2023-03-31T07:32:35;5.2;;;2.4;;
79346;SDS011;68815;48.810;44.482;2023-03-31T07:35:37;4.7;;;2.4;;
79346;SDS011;68815;48.810;44.482;2023-03-31T07:38:39;4.2;;;2.3;;
79346;SDS011;68815;48.810;44.482;2023-03-31T07:41:41;5.1;;;2.7;;
79346;SDS011;68815;48.810;44.482;2023-03-31T07:44:43;4.3;;;2.2;;
79346;SDS011;68815;48.810;44.482;2023-03-31T07:47:45;7.2;;;2.6;;
79346;SDS011;68815;48.810;44.482;2023-03-31T07:50:47;3.9;;;2.3;;
79346;SDS011;68815;48.810;44.482;2023-03-31T07:53:48;4.7;;;2.6;;
79346;SDS011;68815;48.810;44.482;2023-03-31T07:56:51;5.3;;;2.2;;
79346;SDS011;68815;48.810;44.482;2023-03-31T07:59:53;5.1;;;2.2;;
79346;SDS011;68815;48.810;44.482;2023-03-31T08:06:25;4;;;2.3;;
79346;SDS011;68815;48.810;44.482;2023-03-31T08:12:58;6;;;2.2;;
79346;SDS011;68815;48.810;44.482;2023-03-31T08:19:12;4.3;;;2.1;;
79346;SDS011;68815;48.810;44.482;2023-03-31T08:22:13;7.2;;;2;;
79346;SDS011;68815;48.810;44.482;2023-03-31T08:25:15;4.6;;;2.3;;
79346;SDS011;68815;48.810;44.482;2023-03-31T08:28:16;4.5;;;2.3;;
79346;SDS011;68815;48.810;44.482;2023-03-31T08:31:18;3.9;;;1.9;;
79346;SDS011;68815;48.810;44.482;2023-03-31T08:34:21;4.7;;;2.4;;
79346;SDS011;68815;48.810;44.482;2023-03-31T08:37:22;5;;;2.3;;
79346;SDS011;68815;48.810;44.482;2023-03-31T08:40:25;4.4;;;2.3;;
79346;SDS011;68815;48.810;44.482;2023-03-31T08:43:29;4.6;;;2.5;;
79346;SDS011;68815;48.810;44.482;2023-03-31T08:46:33;4.9;;;2.4;;
79346;SDS011;68815;48.810;44.482;2023-03-31T08:49:36;5.3;;;2.5;;
79346;SDS011;68815;48.810;44.482;2023-03-31T08:52:43;5.4;;;2.8;;
79346;SDS011;68815;48.810;44.482;2023-03-31T08:55:54;4.8;;;2.4;;
79346;SDS011;68815;48.810;44.482;2023-03-31T08:58:57;4.6;;;2.3;;
79346;SDS011;68815;48.810;44.482;2023-03-31T09:02:01;5;;;2.8;;
79346;SDS011;68815;48.810;44.482;2023-03-31T09:05:17;4.5;;;2.5;;
79346;SDS011;68815;48.810;44.482;2023-03-31T09:08:30;5.5;;;2.5;;
79346;SDS011;68815;48.810;44.482;2023-03-31T09:11:34;4.3;;;2.3;;
79346;SDS011;68815;48.810;44.482;2023-03-31T09:14:39;5.7;;;2.5;;
79346;SDS011;68815;48.810;44.482;2023-03-31T09:17:45;4.8;;;2.5;;
79346;SDS011;68815;48.810;44.482;2023-03-31T09:20:50;4.5;;;2.4;;
79346;SDS011;68815;48.810;44.482;2023-03-31T09:23:55;5;;;2.1;;
79346;SDS011;68815;48.810;44.482;2023-03-31T09:27:01;5.6;;;2.5;;
79346;SDS011;68815;48.810;44.482;2023-03-31T09:30:09;5.3;;;2.1;;
79346;SDS011;68815;48.810;44.482;2023-03-31T09:33:17;5.4;;;2.2;;
79346;SDS011;68815;48.810;44.482;2023-03-31T09:36:20;4.7;;;2;;
79346;SDS011;68815;48.810;44.482;2023-03-31T09:39:22;5.9;;;2.3;;
79346;SDS011;68815;48.810;44.482;2023-03-31T09:42:23;7.6;;;2.9;;
79346;SDS011;68815;48.810;44.482;2023-03-31T09:45:26;7.9;;;2.2;;
79346;SDS011;68815;48.810;44.482;2023-03-31T09:48:29;4.4;;;2.2;;
79346;SDS011;68815;48.810;44.482;2023-03-31T09:51:35;4.2;;;2.3;;
79346;SDS011;68815;48.810;44.482;2023-03-31T09:54:40;4.7;;;2.3;;
79346;SDS011;68815;48.810;44.482;2023-03-31T09:57:47;4.6;;;2.2;;
79346;SDS011;68815;48.810;44.482;2023-03-31T10:00:55;3.9;;;2.4;;
79346;SDS011;68815;48.810;44.482;2023-03-31T10:04:00;4.7;;;2.3;;
79346;SDS011;68815;48.810;44.482;2023-03-31T10:07:03;4.5;;;2.4;;
79346;SDS011;68815;48.810;44.482;2023-03-31T10:10:08;5.5;;;2.3;;
79346;SDS011;68815;48.810;44.482;2023-03-31T10:13:19;6.1;;;2.4;;
79346;SDS011;68815;48.810;44.482;2023-03-31T10:16:26;7.4;;;2.4;;
79346;SDS011;68815;48.810;44.482;2023-03-31T10:19:31;4.5;;;2.3;;
79346;SDS011;68815;48.810;44.482;2023-03-31T10:22:37;5.3;;;2.3;;
79346;SDS011;68815;48.810;44.482;2023-03-31T10:25:44;4.6;;;2.1;;
79346;SDS011;68815;48.810;44.482;2023-03-31T10:28:47;4.7;;;2.2;;
79346;SDS011;68815;48.810;44.482;2023-03-31T10:31:49;5.4;;;2.3;;
79346;SDS011;68815;48.810;44.482;2023-03-31T10:34:51;4.5;;;2.3;;
79346;SDS011;68815;48.810;44.482;2023-03-31T10:37:54;4.2;;;2.3;;
79346;SDS011;68815;48.810;44.482;2023-03-31T10:40:58;4.3;;;2.2;;
79346;SDS011;68815;48.810;44.482;2023-03-31T10:44:01;4.9;;;2.5;;
79346;SDS011;68815;48.810;44.482;2023-03-31T10:47:05;5.7;;;2.2;;
79346;SDS011;68815;48.810;44.482;2023-03-31T10:50:17;5.2;;;2.3;;
79346;SDS011;68815;48.810;44.482;2023-03-31T10:53:18;4.4;;;2.3;;
79346;SDS011;68815;48.810;44.482;2023-03-31T10:59:55;4.4;;;2.2;;
79346;SDS011;68815;48.810;44.482;2023-03-31T11:03:10;4.4;;;2.3;;
79346;SDS011;68815;48.810;44.482;2023-03-31T11:06:18;4.3;;;2.3;;
79346;SDS011;68815;48.810;44.482;2023-03-31T11:09:31;4.9;;;2.4;;
79346;SDS011;68815;48.810;44.482;2023-03-31T11:12:41;3.9;;;2.3;;
79346;SDS011;68815;48.810;44.482;2023-03-31T11:15:50;4.5;;;2.4;;
79346;SDS011;68815;48.810;44.482;2023-03-31T11:19:00;5;;;2.5;;
79346;SDS011;68815;48.810;44.482;2023-03-31T11:22:10;4.2;;;2.5;;
79346;SDS011;68815;48.810;44.482;2023-03-31T11:25:18;5.4;;;2.6;;
79346;SDS011;68815;48.810;44.482;2023-03-31T11:28:34;4.5;;;2.4;;
79346;SDS011;68815;48.810;44.482;2023-03-31T11:31:44;4.2;;;2.4;;
79346;SDS011;68815;48.810;44.482;2023-03-31T11:34:56;6.3;;;2.7;;
79346;SDS011;68815;48.810;44.482;2023-03-31T11:38:10;4.1;;;2.5;;
79346;SDS011;68815;48.810;44.482;2023-03-31T11:41:20;4.7;;;2.5;;
79346;SDS011;68815;48.810;44.482;2023-03-31T11:44:29;4.2;;;2.3;;
79346;SDS011;68815;48.810;44.482;2023-03-31T11:47:39;4.9;;;2.5;;
79346;SDS011;68815;48.810;44.482;2023-03-31T11:50:44;5;;;2.5;;
79346;SDS011;68815;48.810;44.482;2023-03-31T11:53:48;4.4;;;2.4;;
79346;SDS011;68815;48.810;44.482;2023-03-31T11:56:52;5.1;;;2.6;;
79346;SDS011;68815;48.810;44.482;2023-03-31T11:59:57;5.4;;;2.7;;
79346;SDS011;68815;48.810;44.482;2023-03-31T12:03:05;5.8;;;2.6;;
79346;SDS011;68815;48.810;44.482;2023-03-31T12:06:11;5.3;;;2.5;;
79346;SDS011;68815;48.810;44.482;2023-03-31T12:09:18;4.8;;;2.6;;
79346;SDS011;68815;48.810;44.482;2023-03-31T12:12:26;5;;;2.5;;
79346;SDS011;68815;48.810;44.482;2023-03-31T12:15:31;5.5;;;2.9;;
79346;SDS011;68815;48.810;44.482;2023-03-31T12:18:38;6.5;;;2.6;;
79346;SDS011;68815;48.810;44.482;2023-03-31T12:21:46;5.5;;;3;;
79346;SDS011;68815;48.810;44.482;2023-03-31T12:24:50;5.2;;;2.8;;
79346;SDS011;68815;48.810;44.482;2023-03-31T12:27:52;7;;;2.7;;
79346;SDS011;68815;48.810;44.482;2023-03-31T12:30:54;5.4;;;2.7;;
79346;SDS011;68815;48.810;44.482;2023-03-31T12:33:57;5.8;;;3;;
79346;SDS011;68815;48.810;44.482;2023-03-31T12:37:05;5.6;;;2.5;;
79346;SDS011;68815;48.810;44.482;2023-03-31T12:40:22;5.3;;;2.7;;
79346;SDS011;68815;48.810;44.482;2023-03-31T12:43:43;5.8;;;2.6;;
79346;SDS011;68815;48.810;44.482;2023-03-31T12:46:57;5.7;;;2.7;;
79346;SDS011;68815;48.810;44.482;2023-03-31T12:50:12;6.1;;;3.2;;
79346;SDS011;68815;48.810;44.482;2023-03-31T12:53:28;6.5;;;2.9;;
79346;SDS011;68815;48.810;44.482;2023-03-31T13:06:50;5.9;;;2.8;;
79346;SDS011;68815;48.810;44.482;2023-03-31T13:09:55;5.8;;;3;;
79346;SDS011;68815;48.810;44.482;2023-03-31T13:12:59;6.5;;;2.9;;
79346;SDS011;68815;48.810;44.482;2023-03-31T13:16:02;7.1;;;2.9;;
79346;SDS011;68815;48.810;44.482;2023-03-31T13:19:04;5.6;;;3.2;;
79346;SDS011;68815;48.810;44.482;2023-03-31T13:22:06;5.5;;;2.8;;
79346;SDS011;68815;48.810;44.482;2023-03-31T13:28:43;5.6;;;2.8;;
79346;SDS011;68815;48.810;44.482;2023-03-31T13:35:13;5.9;;;2.9;;
79346;SDS011;68815;48.810;44.482;2023-03-31T13:38:23;6.9;;;3.2;;
79346;SDS011;68815;48.810;44.482;2023-03-31T13:41:39;5.4;;;3.1;;
79346;SDS011;68815;48.810;44.482;2023-03-31T13:44:54;5.9;;;2.9;;
79346;SDS011;68815;48.810;44.482;2023-03-31T13:51:31;5.6;;;2.8;;
79346;SDS011;68815;48.810;44.482;2023-03-31T13:58:11;6.3;;;2.9;;
79346;SDS011;68815;48.810;44.482;2023-03-31T14:01:29;5.9;;;2.8;;
79346;SDS011;68815;48.810;44.482;2023-03-31T14:04:41;7.4;;;3;;
79346;SDS011;68815;48.810;44.482;2023-03-31T14:07:57;5.5;;;2.9;;
79346;SDS011;68815;48.810;44.482;2023-03-31T14:14:23;5.1;;;2.8;;
79346;SDS011;68815;48.810;44.482;2023-03-31T14:17:26;5.4;;;2.8;;
79346;SDS011;68815;48.810;44.482;2023-03-31T14:20:31;5.7;;;2.6;;
79346;SDS011;68815;48.810;44.482;2023-03-31T14:23:43;7.5;;;2.9;;
79346;SDS011;68815;48.810;44.482;2023-03-31T14:26:52;5;;;2.6;;
79346;SDS011;68815;48.810;44.482;2023-03-31T14:30:04;6.5;;;2.9;;
79346;SDS011;68815;48.810;44.482;2023-03-31T14:33:16;5.3;;;3.1;;
79346;SDS011;68815;48.810;44.482;2023-03-31T14:36:27;7.3;;;3.3;;
79346;SDS011;68815;48.810;44.482;2023-03-31T14:39:41;7.1;;;3.2;;
79346;SDS011;68815;48.810;44.482;2023-03-31T14:42:46;8.7;;;3.3;;
79346;SDS011;68815;48.810;44.482;2023-03-31T14:45:51;8.3;;;3.5;;
79346;SDS011;68815;48.810;44.482;2023-03-31T14:48:58;8.8;;;3.6;;
79346;SDS011;68815;48.810;44.482;2023-03-31T14:52:16;9;;;4;;
79346;SDS011;68815;48.810;44.482;2023-03-31T14:55:21;8.4;;;3.7;;
79346;SDS011;68815;48.810;44.482;2023-03-31T14:58:25;7.6;;;3.7;;
79346;SDS011;68815;48.810;44.482;2023-03-31T15:01:29;8.1;;;3.6;;
79346;SDS011;68815;48.810;44.482;2023-03-31T15:04:34;6.5;;;3.6;;
79346;SDS011;68815;48.810;44.482;2023-03-31T15:07:42;8.6;;;3.9;;
79346;SDS011;68815;48.810;44.482;2023-03-31T15:10:43;7.8;;;3.9;;
79346;SDS011;68815;48.810;44.482;2023-03-31T15:13:49;7.5;;;3.8;;
79346;SDS011;68815;48.810;44.482;2023-03-31T15:16:52;7;;;3.8;;
79346;SDS011;68815;48.810;44.482;2023-03-31T15:19:54;6;;;3.2;;
79346;SDS011;68815;48.810;44.482;2023-03-31T15:22:57;5.7;;;3.4;;
79346;SDS011;68815;48.810;44.482;2023-03-31T15:26:00;6.5;;;3.3;;
79346;SDS011;68815;48.810;44.482;2023-03-31T15:29:08;5.4;;;3.4;;
79346;SDS011;68815;48.810;44.482;2023-03-31T15:32:18;7.9;;;2.9;;
79346;SDS011;68815;48.810;44.482;2023-03-31T15:35:26;6.6;;;2.8;;
79346;SDS011;68815;48.810;44.482;2023-03-31T15:38:30;6.8;;;3.3;;
79346;SDS011;68815;48.810;44.482;2023-03-31T15:41:32;7.4;;;3.6;;
79346;SDS011;68815;48.810;44.482;2023-03-31T15:44:36;7.8;;;3.5;;
79346;SDS011;68815;48.810;44.482;2023-03-31T15:47:39;7.6;;;3.9;;
79346;SDS011;68815;48.810;44.482;2023-03-31T15:50:50;7.4;;;3.7;;
79346;SDS011;68815;48.810;44.482;2023-03-31T15:53:52;7.5;;;3.8;;
79346;SDS011;68815;48.810;44.482;2023-03-31T15:56:56;8.1;;;3.8;;
79346;SDS011;68815;48.810;44.482;2023-03-31T15:59:59;6.1;;;3.6;;
79346;SDS011;68815;48.810;44.482;2023-03-31T16:03:03;7.6;;;3.6;;
79346;SDS011;68815;48.810;44.482;2023-03-31T16:06:16;6.4;;;3.5;;
79346;SDS011;68815;48.810;44.482;2023-03-31T16:09:24;6.2;;;3.2;;
79346;SDS011;68815;48.810;44.482;2023-03-31T16:12:29;7.4;;;3;;
79346;SDS011;68815;48.810;44.482;2023-03-31T16:15:36;6.4;;;2.9;;
79346;SDS011;68815;48.810;44.482;2023-03-31T16:18:43;6.2;;;3.1;;
79346;SDS011;68815;48.810;44.482;2023-03-31T16:21:48;7.6;;;3.1;;
79346;SDS011;68815;48.810;44.482;2023-03-31T16:24:53;5.7;;;3.1;;
79346;SDS011;68815;48.810;44.482;2023-03-31T16:27:56;7.9;;;3.4;;
79346;SDS011;68815;48.810;44.482;2023-03-31T16:30:59;7;;;3.1;;
79346;SDS011;68815;48.810;44.482;2023-03-31T16:34:02;7.5;;;3.2;;
79346;SDS011;68815;48.810;44.482;2023-03-31T16:37:04;8.2;;;4.3;;
79346;SDS011;68815;48.810;44.482;2023-03-31T16:40:07;7.7;;;3.8;;
79346;SDS011;68815;48.810;44.482;2023-03-31T16:43:10;7.5;;;3.3;;
79346;SDS011;68815;48.810;44.482;2023-03-31T16:46:12;6.6;;;3;;
79346;SDS011;68815;48.810;44.482;2023-03-31T16:49:14;6.4;;;3.1;;
79346;SDS011;68815;48.810;44.482;2023-03-31T16:52:15;5.9;;;3.1;;
79346;SDS011;68815;48.810;44.482;2023-03-31T16:55:16;6.8;;;3.2;;
79346;SDS011;68815;48.810;44.482;2023-03-31T16:58:18;6;;;2.7;;
79346;SDS011;68815;48.810;44.482;2023-03-31T17:01:19;8;;;3.3;;
79346;SDS011;68815;48.810;44.482;2023-03-31T17:04:21;5.6;;;3.1;;
79346;SDS011;68815;48.810;44.482;2023-03-31T17:07:22;5.5;;;2.9;;
79346;SDS011;68815;48.810;44.482;2023-03-31T17:10:24;7.6;;;3.1;;
79346;SDS011;68815;48.810;44.482;2023-03-31T17:13:26;6.4;;;3.3;;
79346;SDS011;68815;48.810;44.482;2023-03-31T17:16:27;8.5;;;3.3;;
79346;SDS011;68815;48.810;44.482;2023-03-31T17:19:28;7.3;;;3.2;;
79346;SDS011;68815;48.810;44.482;2023-03-31T17:22:30;7.1;;;2.9;;
79346;SDS011;68815;48.810;44.482;2023-03-31T17:25:32;5.6;;;2.8;;
79346;SDS011;68815;48.810;44.482;2023-03-31T17:28:34;6.9;;;3.3;;
79346;SDS011;68815;48.810;44.482;2023-03-31T17:31:35;9;;;3.8;;
79346;SDS011;68815;48.810;44.482;2023-03-31T17:34:37;8.8;;;4.3;;
79346;SDS011;68815;48.810;44.482;2023-03-31T17:37:38;8.8;;;4.2;;
79346;SDS011;68815;48.810;44.482;2023-03-31T17:40:39;9.1;;;4.5;;
79346;SDS011;68815;48.810;44.482;2023-03-31T17:43:43;7.1;;;3.9;;
79346;SDS011;68815;48.810;44.482;2023-03-31T17:46:44;9.2;;;4.6;;
79346;SDS011;68815;48.810;44.482;2023-03-31T17:49:46;7.8;;;4.1;;
79346;SDS011;68815;48.810;44.482;2023-03-31T17:52:47;8.6;;;3.8;;
79346;SDS011;68815;48.810;44.482;2023-03-31T17:55:49;7.7;;;4.1;;
79346;SDS011;68815;48.810;44.482;2023-03-31T17:58:50;10.2;;;4.7;;
79346;SDS011;68815;48.810;44.482;2023-03-31T18:01:51;11.5;;;4.8;;
79346;SDS011;68815;48.810;44.482;2023-03-31T18:04:52;10.3;;;4.6;;
79346;SDS011;68815;48.810;44.482;2023-03-31T18:07:54;8;;;4.7;;
79346;SDS011;68815;48.810;44.482;2023-03-31T18:10:55;8.1;;;4.4;;
79346;SDS011;68815;48.810;44.482;2023-03-31T18:13:57;8.8;;;4.6;;
79346;SDS011;68815;48.810;44.482;2023-03-31T18:16:58;9.5;;;4.3;;
79346;SDS011;68815;48.810;44.482;2023-03-31T18:19:59;9;;;4.5;;
79346;SDS011;68815;48.810;44.482;2023-03-31T18:23:01;8.7;;;4.7;;
79346;SDS011;68815;48.810;44.482;2023-03-31T18:26:05;8.3;;;4.1;;
79346;SDS011;68815;48.810;44.482;2023-03-31T18:29:10;8;;;4.5;;
79346;SDS011;68815;48.810;44.482;2023-03-31T18:32:15;8.1;;;4.3;;
79346;SDS011;68815;48.810;44.482;2023-03-31T18:35:21;9.5;;;4.6;;
79346;SDS011;68815;48.810;44.482;2023-03-31T18:38:40;10.5;;;4.9;;
79346;SDS011;68815;48.810;44.482;2023-03-31T18:41:55;10.5;;;5;;
79346;SDS011;68815;48.810;44.482;2023-03-31T18:44:59;11.6;;;4.5;;
79346;SDS011;68815;48.810;44.482;2023-03-31T18:48:04;11.6;;;5;;
79346;SDS011;68815;48.810;44.482;2023-03-31T18:51:07;12.1;;;4.8;;
79346;SDS011;68815;48.810;44.482;2023-03-31T18:54:15;10.4;;;4.6;;
79346;SDS011;68815;48.810;44.482;2023-03-31T18:57:25;8.8;;;4.4;;
79346;SDS011;68815;48.810;44.482;2023-03-31T19:00:28;13.3;;;4.4;;
79346;SDS011;68815;48.810;44.482;2023-03-31T19:03:35;8.8;;;4.3;;
79346;SDS011;68815;48.810;44.482;2023-03-31T19:06:38;11.7;;;5.7;;
79346;SDS011;68815;48.810;44.482;2023-03-31T19:09:39;10.9;;;5;;
79346;SDS011;68815;48.810;44.482;2023-03-31T19:12:45;7.7;;;4.3;;
79346;SDS011;68815;48.810;44.482;2023-03-31T19:15:48;9.1;;;4.4;;
79346;SDS011;68815;48.810;44.482;2023-03-31T19:18:52;9.2;;;4;;
79346;SDS011;68815;48.810;44.482;2023-03-31T19:21:55;6.2;;;3.5;;
79346;SDS011;68815;48.810;44.482;2023-03-31T19:25:01;6.4;;;3.4;;
79346;SDS011;68815;48.810;44.482;2023-03-31T19:28:07;6.4;;;3.2;;
79346;SDS011;68815;48.810;44.482;2023-03-31T19:31:08;5.9;;;3.2;;
79346;SDS011;68815;48.810;44.482;2023-03-31T19:34:11;7.1;;;3.3;;
79346;SDS011;68815;48.810;44.482;2023-03-31T19:37:13;8.2;;;2.9;;
79346;SDS011;68815;48.810;44.482;2023-03-31T19:40:14;6.9;;;3.4;;
79346;SDS011;68815;48.810;44.482;2023-03-31T19:43:16;6.5;;;3.2;;
79346;SDS011;68815;48.810;44.482;2023-03-31T19:46:19;7.6;;;3.4;;
79346;SDS011;68815;48.810;44.482;2023-03-31T19:49:21;6.5;;;3.4;;
79346;SDS011;68815;48.810;44.482;2023-03-31T19:52:22;7.4;;;3.3;;
79346;SDS011;68815;48.810;44.482;2023-03-31T19:55:23;6;;;3.4;;
79346;SDS011;68815;48.810;44.482;2023-03-31T19:58:25;6.2;;;3.2;;
79346;SDS011;68815;48.810;44.482;2023-03-31T20:01:27;5.4;;;3.1;;
79346;SDS011;68815;48.810;44.482;2023-03-31T20:04:28;5.4;;;3.3;;